Time;durP1;ratioP1;P1;durP2;ratioP2;P2;SDS_P1;SDS_P2;PMS_P1;PMS_P2;Temp;Humidity;BMP_temperature;BMP_pressure;BME280_temperature;BME280_humidity;BME280_pressure;Samples;Min_cycle;Max_cycle;Signal;HPM_P1;HPM_P2
2021/10/20 00:01:53;;;;;;;;;7.50;7.50;;;;;;;;5063880;28;8880;-85
2021/10/20 00:04:21;;;;;;;;;7.75;7.00;;;;;;;;5062759;28;8831;-84
2021/10/20 00:06:48;;;;;;;;;9.00;7.00;;;;;;;;5063087;28;8858;-87
2021/10/20 00:09:16;;;;;;;;;8.75;7.00;;;;;;;;5062607;28;8847;-78
2021/10/20 00:11:45;;;;;;;;;8.75;7.00;;;;;;;;5061836;28;8870;-83
2021/10/20 00:14:12;;;;;;;;;11.00;11.00;;;;;;;;5060353;28;9416;-83
2021/10/20 00:16:39;;;;;;;;;9.50;8.00;;;;;;;;5062157;28;9976;-78
2021/10/20 00:19:07;;;;;;;;;7.75;7.75;;;;;;;;5063959;28;8886;-79
2021/10/20 00:21:34;;;;;;;;;8.50;8.50;;;;;;;;5063059;28;9004;-80
2021/10/20 00:24:02;;;;;;;;;8.00;8.00;;;;;;;;5061325;28;9009;-88
2021/10/20 00:26:29;;;;;;;;;8.75;8.75;;;;;;;;5062619;28;8908;-80
2021/10/20 00:28:58;;;;;;;;;6.25;6.25;;;;;;;;5060080;28;8947;-79
2021/10/20 00:31:25;;;;;;;;;7.00;7.00;;;;;;;;5061603;28;8817;-85
2021/10/20 00:33:53;;;;;;;;;7.25;7.25;;;;;;;;5061462;28;8867;-81
2021/10/20 00:36:20;;;;;;;;;8.50;8.50;;;;;;;;5062457;28;8910;-79
2021/10/20 00:38:47;;;;;;;;;8.00;8.00;;;;;;;;5062059;28;8993;-80
2021/10/20 00:41:15;;;;;;;;;8.00;8.00;;;;;;;;5062469;28;8896;-83
2021/10/20 00:43:42;;;;;;;;;9.50;9.50;;;;;;;;5062703;28;8923;-82
2021/10/20 00:46:12;;;;;;;;;8.00;8.00;;;;;;;;5063351;28;9454;-85
2021/10/20 00:48:39;;;;;;;;;9.00;9.00;;;;;;;;5063026;28;8897;-82
2021/10/20 00:51:06;;;;;;;;;7.75;7.75;;;;;;;;5062781;28;8874;-86
2021/10/20 00:53:34;;;;;;;;;8.25;7.00;;;;;;;;5063420;28;9617;-87
2021/10/20 00:56:01;;;;;;;;;6.25;6.25;;;;;;;;5059571;28;8875;-84
2021/10/20 00:58:29;;;;;;;;;9.75;9.75;;;;;;;;5063616;28;8985;-79
2021/10/20 01:00:56;;;;;;;;;10.00;7.00;;;;;;;;5062573;28;8816;-83
2021/10/20 01:03:25;;;;;;;;;9.75;9.75;;;;;;;;5062542;28;8858;-84
2021/10/20 01:05:53;;;;;;;;;7.75;6.00;;;;;;;;5064476;28;8877;-80
2021/10/20 01:08:20;;;;;;;;;8.25;8.25;;;;;;;;5065733;28;8949;-78
2021/10/20 01:10:47;;;;;;;;;9.50;9.25;;;;;;;;5063787;28;8878;-86
2021/10/20 01:13:15;;;;;;;;;7.50;7.50;;;;;;;;5065116;28;9624;-77
2021/10/20 01:15:43;;;;;;;;;12.00;10.25;;;;;;;;5065162;28;8869;-82
2021/10/20 01:18:10;;;;;;;;;9.00;7.00;;;;;;;;5065089;28;8960;-78
2021/10/20 01:20:40;;;;;;;;;7.75;7.75;;;;;;;;5064428;28;8992;-84
2021/10/20 01:23:09;;;;;;;;;8.00;6.50;;;;;;;;5065662;28;8919;-84
2021/10/20 01:25:37;;;;;;;;;8.25;7.25;;;;;;;;5057823;28;9639;-82
2021/10/20 01:28:04;;;;;;;;;12.00;9.50;;;;;;;;5062914;28;8835;-86
2021/10/20 01:30:32;;;;;;;;;12.00;8.00;;;;;;;;5065187;28;9393;-84
2021/10/20 01:32:59;;;;;;;;;8.75;8.75;;;;;;;;5066817;28;8961;-79
2021/10/20 01:35:26;;;;;;;;;7.75;7.75;;;;;;;;5064149;28;8863;-78
2021/10/20 01:37:54;;;;;;;;;13.25;9.00;;;;;;;;5065766;28;8874;-80
2021/10/20 01:40:22;;;;;;;;;6.25;6.25;;;;;;;;5061615;28;8890;-88
2021/10/20 01:42:50;;;;;;;;;9.50;9.00;;;;;;;;5064618;28;8866;-85
2021/10/20 01:45:17;;;;;;;;;10.50;8.25;;;;;;;;5066155;28;8874;-86
2021/10/20 01:47:44;;;;;;;;;12.50;10.25;;;;;;;;5065406;28;8881;-85
2021/10/20 01:50:14;;;;;;;;;8.50;8.50;;;;;;;;5066715;28;8913;-81
2021/10/20 01:52:41;;;;;;;;;9.00;9.00;;;;;;;;5064533;28;8867;-85
2021/10/20 01:55:10;;;;;;;;;8.25;8.00;;;;;;;;5066574;28;8858;-85
2021/10/20 01:57:38;;;;;;;;;6.75;6.75;;;;;;;;5065544;28;8913;-85
2021/10/20 02:00:07;;;;;;;;;7.75;7.00;;;;;;;;5065056;28;9772;-84
2021/10/20 02:02:34;;;;;;;;;10.75;9.50;;;;;;;;5064880;28;8876;-85
2021/10/20 02:05:01;;;;;;;;;9.25;9.25;;;;;;;;5064517;28;8874;-85
2021/10/20 02:07:29;;;;;;;;;11.75;9.50;;;;;;;;5063922;28;8854;-81
2021/10/20 02:09:56;;;;;;;;;7.75;7.75;;;;;;;;5063913;28;8874;-80
2021/10/20 02:12:23;;;;;;;;;13.00;11.00;;;;;;;;5064231;28;8897;-83
2021/10/20 02:14:52;;;;;;;;;9.50;9.25;;;;;;;;5064801;28;8851;-84
2021/10/20 02:17:20;;;;;;;;;11.25;8.75;;;;;;;;5063707;28;8988;-81
2021/10/20 02:19:47;;;;;;;;;10.25;8.75;;;;;;;;5065526;28;9612;-86
2021/10/20 02:22:14;;;;;;;;;8.75;8.75;;;;;;;;5063260;28;8922;-83
2021/10/20 02:24:41;;;;;;;;;9.75;9.75;;;;;;;;5060241;28;8905;-79
2021/10/20 02:27:09;;;;;;;;;7.75;7.75;;;;;;;;5063946;28;9666;-79
2021/10/20 02:29:36;;;;;;;;;7.25;7.25;;;;;;;;5063904;28;8890;-78
2021/10/20 02:32:05;;;;;;;;;6.25;6.25;;;;;;;;5062460;28;8942;-87
2021/10/20 02:34:32;;;;;;;;;9.75;7.75;;;;;;;;5064350;28;8994;-79
2021/10/20 02:37:00;;;;;;;;;8.25;8.25;;;;;;;;5065446;28;8905;-85
2021/10/20 02:39:27;;;;;;;;;12.00;9.75;;;;;;;;5065746;28;8878;-84
2021/10/20 02:41:54;;;;;;;;;8.00;8.00;;;;;;;;5069552;28;8897;-85
2021/10/20 02:44:22;;;;;;;;;9.75;9.75;;;;;;;;5062905;28;8948;-78
2021/10/20 02:46:49;;;;;;;;;5.50;5.50;;;;;;;;5064232;28;8879;-79
2021/10/20 02:49:18;;;;;;;;;9.75;6.50;;;;;;;;5064044;28;8992;-78
2021/10/20 02:51:45;;;;;;;;;10.75;10.75;;;;;;;;5060529;28;8882;-83
2021/10/20 02:54:12;;;;;;;;;10.00;10.00;;;;;;;;5066521;28;9007;-84
2021/10/20 02:56:40;;;;;;;;;9.00;7.75;;;;;;;;5063987;28;8985;-87
2021/10/20 02:59:07;;;;;;;;;9.50;9.50;;;;;;;;5063481;28;8859;-86
2021/10/20 03:01:34;;;;;;;;;10.25;9.25;;;;;;;;5062821;28;8840;-85
2021/10/20 03:04:02;;;;;;;;;11.50;9.25;;;;;;;;5063553;28;8886;-83
2021/10/20 03:06:30;;;;;;;;;12.00;12.00;;;;;;;;5063836;28;8880;-82
2021/10/20 03:08:58;;;;;;;;;14.00;12.25;;;;;;;;5062951;28;8943;-80
2021/10/20 03:11:25;;;;;;;;;10.00;7.50;;;;;;;;5067883;28;8839;-80
2021/10/20 03:13:52;;;;;;;;;10.50;10.50;;;;;;;;5062975;28;8894;-85
2021/10/20 03:16:20;;;;;;;;;9.25;9.25;;;;;;;;5063573;28;8839;-78
2021/10/20 03:18:47;;;;;;;;;13.00;11.25;;;;;;;;5061444;28;8874;-85
2021/10/20 03:21:14;;;;;;;;;11.75;9.75;;;;;;;;5063431;28;8858;-77
2021/10/20 03:23:43;;;;;;;;;8.00;8.00;;;;;;;;5063146;28;8872;-81
2021/10/20 03:26:10;;;;;;;;;10.25;10.25;;;;;;;;5067614;28;8900;-81
2021/10/20 03:28:38;;;;;;;;;12.00;11.25;;;;;;;;5062287;28;8919;-79
2021/10/20 03:31:05;;;;;;;;;12.75;9.00;;;;;;;;5062304;28;8815;-81
2021/10/20 03:33:33;;;;;;;;;10.50;10.50;;;;;;;;5063345;28;8931;-82
2021/10/20 03:36:00;;;;;;;;;7.75;7.75;;;;;;;;5063268;28;8963;-82
2021/10/20 03:38:28;;;;;;;;;10.50;10.50;;;;;;;;5062437;28;8886;-79
2021/10/20 03:40:56;;;;;;;;;9.50;9.50;;;;;;;;5061220;28;8863;-84
2021/10/20 03:43:24;;;;;;;;;11.25;9.25;;;;;;;;5063012;28;8850;-81
2021/10/20 03:45:51;;;;;;;;;12.00;11.50;;;;;;;;5059026;28;8875;-80
2021/10/20 03:48:18;;;;;;;;;11.50;9.25;;;;;;;;5060397;28;8926;-85
2021/10/20 03:50:46;;;;;;;;;11.25;11.25;;;;;;;;5062874;28;8854;-85
2021/10/20 03:53:13;;;;;;;;;13.00;10.50;;;;;;;;5062797;28;9013;-82
2021/10/20 03:55:40;;;;;;;;;12.25;9.75;;;;;;;;5062275;28;8851;-78
2021/10/20 03:58:09;;;;;;;;;10.50;10.50;;;;;;;;5061967;28;8973;-81
2021/10/20 04:00:37;;;;;;;;;11.25;9.50;;;;;;;;5062087;28;8937;-81
2021/10/20 04:03:04;;;;;;;;;13.50;11.25;;;;;;;;5056288;28;8973;-78
2021/10/20 04:05:33;;;;;;;;;10.75;10.75;;;;;;;;5062910;28;8878;-80
2021/10/20 04:08:00;;;;;;;;;11.00;11.00;;;;;;;;5062459;28;9013;-80
2021/10/20 04:10:27;;;;;;;;;11.00;11.00;;;;;;;;5061642;28;8870;-79
2021/10/20 04:12:55;;;;;;;;;12.25;12.25;;;;;;;;5066951;28;8866;-81
2021/10/20 04:15:26;;;;;;;;;11.00;10.00;;;;;;;;5061415;28;8922;-78
2021/10/20 04:17:53;;;;;;;;;12.50;11.50;;;;;;;;5063853;28;8898;-78
2021/10/20 04:20:22;;;;;;;;;14.25;14.25;;;;;;;;5062209;28;9595;-77
2021/10/20 04:22:51;;;;;;;;;12.75;12.75;;;;;;;;5062171;28;8863;-77
2021/10/20 04:25:19;;;;;;;;;14.50;13.75;;;;;;;;5062807;28;8865;-77
2021/10/20 04:27:48;;;;;;;;;13.25;12.25;;;;;;;;5061349;28;8892;-75
2021/10/20 04:30:17;;;;;;;;;12.25;11.25;;;;;;;;5063216;28;9608;-85
2021/10/20 04:32:47;;;;;;;;;18.00;13.25;;;;;;;;5060628;28;8886;-82
2021/10/20 04:35:14;;;;;;;;;11.25;11.25;;;;;;;;5062138;28;8884;-77
2021/10/20 04:37:42;;;;;;;;;16.75;13.50;;;;;;;;5061490;28;8946;-84
2021/10/20 04:40:10;;;;;;;;;13.00;12.75;;;;;;;;5062755;28;9660;-83
2021/10/20 04:42:38;;;;;;;;;12.75;11.00;;;;;;;;5065970;28;8875;-81
2021/10/20 04:45:06;;;;;;;;;11.75;9.00;;;;;;;;5064976;28;8867;-92
2021/10/20 04:47:33;;;;;;;;;10.25;10.25;;;;;;;;5070642;28;8880;-90
2021/10/20 04:50:05;;;;;;;;;12.50;12.50;;;;;;;;5065368;28;8867;-79
2021/10/20 04:52:34;;;;;;;;;11.00;8.25;;;;;;;;5067446;28;8883;-82
2021/10/20 04:55:02;;;;;;;;;9.25;9.25;;;;;;;;5063546;28;8974;-88
2021/10/20 04:57:29;;;;;;;;;11.75;11.75;;;;;;;;5065791;28;8881;-77
2021/10/20 04:59:56;;;;;;;;;13.75;12.25;;;;;;;;5066030;28;8842;-82
2021/10/20 05:02:24;;;;;;;;;13.00;11.00;;;;;;;;5064199;28;8862;-77
2021/10/20 05:04:51;;;;;;;;;11.75;11.75;;;;;;;;5065031;28;8904;-86
2021/10/20 05:07:20;;;;;;;;;11.75;11.75;;;;;;;;5063272;28;8948;-87
2021/10/20 05:09:49;;;;;;;;;13.00;13.00;;;;;;;;5066245;28;9008;-87
2021/10/20 05:12:17;;;;;;;;;2.75;2.75;;;;;;;;5065692;28;9710;-83
2021/10/20 05:14:44;;;;;;;;;12.75;12.50;;;;;;;;5065940;28;8867;-78
2021/10/20 05:17:12;;;;;;;;;12.75;12.75;;;;;;;;5064652;28;8880;-80
2021/10/20 05:19:40;;;;;;;;;11.00;11.00;;;;;;;;5066254;28;8855;-82
2021/10/20 05:22:07;;;;;;;;;12.50;11.75;;;;;;;;5064707;28;8834;-78
2021/10/20 05:24:36;;;;;;;;;13.75;13.75;;;;;;;;5064987;28;8886;-77
2021/10/20 05:27:04;;;;;;;;;8.50;8.50;;;;;;;;5065643;28;8912;-82
2021/10/20 05:29:34;;;;;;;;;11.25;11.25;;;;;;;;5064937;28;8890;-78
2021/10/20 05:32:02;;;;;;;;;11.75;11.75;;;;;;;;5065346;28;8910;-80
2021/10/20 05:34:29;;;;;;;;;13.00;12.00;;;;;;;;5065673;28;8927;-80
2021/10/20 05:37:02;;;;;;;;;13.75;13.25;;;;;;;;5064960;28;8839;-88
2021/10/20 05:39:29;;;;;;;;;12.00;12.00;;;;;;;;5065119;28;8831;-84
2021/10/20 05:41:58;;;;;;;;;9.50;9.50;;;;;;;;5064916;28;9016;-80
2021/10/20 05:44:25;;;;;;;;;10.50;10.50;;;;;;;;5065897;28;8889;-85
2021/10/20 05:46:53;;;;;;;;;13.00;13.00;;;;;;;;5064889;28;8882;-79
2021/10/20 05:49:20;;;;;;;;;12.75;12.75;;;;;;;;5066048;28;8875;-79
2021/10/20 05:51:47;;;;;;;;;10.50;9.50;;;;;;;;5064374;28;8871;-79
2021/10/20 05:54:14;;;;;;;;;10.00;9.75;;;;;;;;5065790;28;8863;-82
2021/10/20 05:56:42;;;;;;;;;12.50;10.50;;;;;;;;5065898;28;8974;-86
2021/10/20 05:59:10;;;;;;;;;8.25;8.25;;;;;;;;5066017;28;8948;-77
2021/10/20 06:01:38;;;;;;;;;8.75;8.75;;;;;;;;5066145;28;8823;-82
2021/10/20 06:04:06;;;;;;;;;12.00;12.00;;;;;;;;5065124;28;8858;-80
2021/10/20 06:06:34;;;;;;;;;12.25;11.75;;;;;;;;5065627;28;9600;-78
2021/10/20 06:09:01;;;;;;;;;13.25;13.25;;;;;;;;5065320;28;9074;-77
2021/10/20 06:11:28;;;;;;;;;12.75;12.25;;;;;;;;5066245;28;8871;-81
2021/10/20 06:13:56;;;;;;;;;9.75;9.75;;;;;;;;5065085;28;8994;-82
2021/10/20 06:16:25;;;;;;;;;11.50;9.75;;;;;;;;5065304;28;8936;-81
2021/10/20 06:18:52;;;;;;;;;10.25;10.25;;;;;;;;5062805;28;8883;-78
2021/10/20 06:21:20;;;;;;;;;13.50;12.00;;;;;;;;5063942;28;8959;-81
2021/10/20 06:23:47;;;;;;;;;11.75;10.25;;;;;;;;5065999;28;8886;-83
2021/10/20 06:26:14;;;;;;;;;11.50;11.50;;;;;;;;5061622;28;8943;-83
2021/10/20 06:28:42;;;;;;;;;15.00;13.25;;;;;;;;5065898;28;8886;-78
2021/10/20 06:31:09;;;;;;;;;12.25;11.75;;;;;;;;5062786;28;8833;-83
2021/10/20 06:33:40;;;;;;;;;13.00;13.00;;;;;;;;5074880;28;8868;-72
2021/10/20 06:36:07;;;;;;;;;16.00;16.00;;;;;;;;5064765;28;8881;-73
2021/10/20 06:38:34;;;;;;;;;10.75;10.75;;;;;;;;5059993;28;9025;-74
2021/10/20 06:41:01;;;;;;;;;16.00;15.75;;;;;;;;5061435;28;8997;-73
2021/10/20 06:43:28;;;;;;;;;13.25;13.00;;;;;;;;5062965;28;8876;-74
2021/10/20 06:45:56;;;;;;;;;14.75;14.75;;;;;;;;5064365;28;8870;-74
2021/10/20 06:48:23;;;;;;;;;15.00;15.00;;;;;;;;5070243;28;8928;-74
2021/10/20 06:50:52;;;;;;;;;13.00;13.00;;;;;;;;5061720;28;8888;-74
2021/10/20 06:53:19;;;;;;;;;15.75;15.75;;;;;;;;5063941;28;8972;-73
2021/10/20 06:55:46;;;;;;;;;12.50;12.50;;;;;;;;5063945;28;8874;-75
2021/10/20 06:58:13;;;;;;;;;17.00;16.25;;;;;;;;5063837;28;8851;-75
2021/10/20 07:00:41;;;;;;;;;14.25;13.75;;;;;;;;5062658;28;8885;-74
2021/10/20 07:03:08;;;;;;;;;19.75;15.75;;;;;;;;5064403;28;8855;-74
2021/10/20 07:05:36;;;;;;;;;11.75;11.75;;;;;;;;5060968;28;8892;-74
2021/10/20 07:08:05;;;;;;;;;15.50;14.00;;;;;;;;5062366;28;8894;-73
2021/10/20 07:10:32;;;;;;;;;18.75;16.50;;;;;;;;5062886;28;8858;-73
2021/10/20 07:13:00;;;;;;;;;14.00;14.00;;;;;;;;5060511;28;8862;-77
2021/10/20 07:15:27;;;;;;;;;12.25;12.00;;;;;;;;5058508;28;8868;-72
2021/10/20 07:17:55;;;;;;;;;14.25;13.00;;;;;;;;5059267;28;8878;-74
2021/10/20 07:20:22;;;;;;;;;14.75;14.75;;;;;;;;5061565;28;8880;-75
2021/10/20 07:22:50;;;;;;;;;15.00;15.00;;;;;;;;5061208;28;8881;-74
2021/10/20 07:25:19;;;;;;;;;20.25;17.75;;;;;;;;5062388;28;8873;-74
2021/10/20 07:27:47;;;;;;;;;15.75;15.75;;;;;;;;5063212;28;9723;-75
2021/10/20 07:30:16;;;;;;;;;16.50;14.50;;;;;;;;5061954;28;8847;-75
2021/10/20 07:32:44;;;;;;;;;13.50;13.50;;;;;;;;5063643;28;8992;-74
2021/10/20 07:35:13;;;;;;;;;16.75;16.75;;;;;;;;5061429;28;8893;-75
2021/10/20 07:37:41;;;;;;;;;11.75;11.50;;;;;;;;5063451;28;8842;-74
2021/10/20 07:40:10;;;;;;;;;13.75;13.75;;;;;;;;5061496;28;9550;-74
2021/10/20 07:42:39;;;;;;;;;17.25;14.75;;;;;;;;5056389;28;9678;-74
2021/10/20 07:45:08;;;;;;;;;17.00;16.50;;;;;;;;5061241;28;8863;-75
2021/10/20 07:47:36;;;;;;;;;14.25;13.50;;;;;;;;5062452;28;8863;-75
2021/10/20 07:50:05;;;;;;;;;16.75;15.00;;;;;;;;5064540;28;8931;-75
2021/10/20 07:52:33;;;;;;;;;21.00;19.00;;;;;;;;5061427;28;9447;-74
2021/10/20 07:55:01;;;;;;;;;16.75;12.50;;;;;;;;5062010;28;8908;-75
2021/10/20 07:57:29;;;;;;;;;16.00;16.00;;;;;;;;5063925;28;8916;-74
2021/10/20 07:59:58;;;;;;;;;14.25;14.25;;;;;;;;5062196;28;8878;-75
2021/10/20 08:02:26;;;;;;;;;14.25;14.00;;;;;;;;5058816;28;8799;-74
2021/10/20 08:04:54;;;;;;;;;17.50;17.50;;;;;;;;5067768;28;8866;-73
2021/10/20 08:07:21;;;;;;;;;16.00;16.00;;;;;;;;5062160;28;8834;-73
2021/10/20 08:09:49;;;;;;;;;18.75;15.00;;;;;;;;5061012;28;8866;-73
2021/10/20 08:12:17;;;;;;;;;18.75;18.50;;;;;;;;5061600;28;8880;-74
2021/10/20 08:14:44;;;;;;;;;19.50;16.00;;;;;;;;5061592;28;8908;-74
2021/10/20 08:17:13;;;;;;;;;17.25;17.25;;;;;;;;5065626;28;8917;-74
2021/10/20 08:19:40;;;;;;;;;16.25;16.00;;;;;;;;5063779;28;8955;-73
2021/10/20 08:22:07;;;;;;;;;15.00;15.00;;;;;;;;5066817;28;8888;-74
2021/10/20 08:24:37;;;;;;;;;14.25;13.25;;;;;;;;5067621;28;9751;-74
2021/10/20 08:27:04;;;;;;;;;14.00;14.00;;;;;;;;5067518;28;9025;-74
2021/10/20 08:29:33;;;;;;;;;16.00;16.00;;;;;;;;5067861;28;8870;-73
2021/10/20 08:32:02;;;;;;;;;12.25;12.25;;;;;;;;5066367;28;8831;-74
2021/10/20 08:34:31;;;;;;;;;14.75;14.75;;;;;;;;5067684;28;8914;-74
2021/10/20 08:36:58;;;;;;;;;13.25;13.25;;;;;;;;5066715;28;8894;-74
2021/10/20 08:39:25;;;;;;;;;17.50;15.75;;;;;;;;5066658;28;9632;-73
2021/10/20 08:41:54;;;;;;;;;14.50;14.50;;;;;;;;5067078;28;8866;-73
2021/10/20 08:44:22;;;;;;;;;18.25;17.00;;;;;;;;5066772;28;8850;-73
2021/10/20 08:46:50;;;;;;;;;15.00;15.00;;;;;;;;5067570;28;8866;-74
2021/10/20 08:49:18;;;;;;;;;16.50;15.00;;;;;;;;5066037;28;8880;-74
2021/10/20 08:51:47;;;;;;;;;15.50;15.50;;;;;;;;5067085;28;9632;-74
2021/10/20 08:54:15;;;;;;;;;14.75;14.75;;;;;;;;5066388;28;8977;-74
2021/10/20 08:56:44;;;;;;;;;15.25;15.25;;;;;;;;5067295;28;8874;-74
2021/10/20 08:59:11;;;;;;;;;14.00;13.75;;;;;;;;5067131;28;8940;-73
2021/10/20 09:01:39;;;;;;;;;18.00;16.00;;;;;;;;5065841;28;8924;-73
2021/10/20 09:04:07;;;;;;;;;15.75;14.00;;;;;;;;5067453;28;8862;-73
2021/10/20 09:06:34;;;;;;;;;18.25;15.00;;;;;;;;5060976;28;8876;-73
2021/10/20 09:09:06;;;;;;;;;10.50;9.00;;;;;;;;5066915;28;9014;-73
2021/10/20 09:11:34;;;;;;;;;15.50;15.50;;;;;;;;5065633;28;8866;-75
2021/10/20 09:14:02;;;;;;;;;16.00;16.00;;;;;;;;5068381;28;8909;-75
2021/10/20 09:16:30;;;;;;;;;15.25;13.75;;;;;;;;5066871;28;9671;-74
2021/10/20 09:18:58;;;;;;;;;14.25;13.25;;;;;;;;5066425;28;9047;-74
2021/10/20 09:21:26;;;;;;;;;12.50;12.50;;;;;;;;5067274;28;8878;-74
2021/10/20 09:23:54;;;;;;;;;12.25;11.25;;;;;;;;5065884;28;8977;-73
2021/10/20 09:26:28;;;;;;;;;17.50;17.50;;;;;;;;5066227;28;8870;-73
2021/10/20 09:28:55;;;;;;;;;15.00;14.50;;;;;;;;5065416;28;8897;-73
2021/10/20 09:31:23;;;;;;;;;13.75;13.75;;;;;;;;5066117;28;8827;-74
2021/10/20 09:33:52;;;;;;;;;13.25;13.25;;;;;;;;5066311;28;9620;-73
2021/10/20 09:36:22;;;;;;;;;15.00;12.50;;;;;;;;5066026;28;9632;-73
2021/10/20 09:38:49;;;;;;;;;12.50;12.50;;;;;;;;5066631;28;8835;-72
2021/10/20 09:41:17;;;;;;;;;18.75;16.25;;;;;;;;5063918;28;8878;-73
2021/10/20 09:43:52;;;;;;;;;15.75;13.25;;;;;;;;5066298;28;8877;-71
2021/10/20 09:46:32;;;;;;;;;13.00;13.00;;;;;;;;5065105;28;9000;-73
2021/10/20 09:49:03;;;;;;;;;16.75;14.50;;;;;;;;5066337;28;8871;-73
2021/10/20 09:51:38;;;;;;;;;14.25;10.75;;;;;;;;5065809;28;8894;-74
2021/10/20 09:54:23;;;;;;;;;15.25;15.25;;;;;;;;5065635;28;8858;-73
2021/10/20 09:56:54;;;;;;;;;16.75;14.25;;;;;;;;5062996;28;8898;-73
2021/10/20 09:59:24;;;;;;;;;13.25;13.25;;;;;;;;5065557;28;8900;-73
2021/10/20 10:01:51;;;;;;;;;15.25;15.25;;;;;;;;5065587;28;8839;-74
2021/10/20 10:04:18;;;;;;;;;12.50;11.50;;;;;;;;5065215;28;8851;-74
2021/10/20 10:06:47;;;;;;;;;15.25;14.00;;;;;;;;5063746;28;8908;-74
2021/10/20 10:09:16;;;;;;;;;15.00;12.75;;;;;;;;5066107;28;8865;-74
2021/10/20 10:11:48;;;;;;;;;12.25;12.25;;;;;;;;5064896;28;8874;-74
2021/10/20 10:14:17;;;;;;;;;17.25;15.00;;;;;;;;5066014;28;8878;-74
2021/10/20 10:16:47;;;;;;;;;13.75;13.00;;;;;;;;5064852;28;8973;-74
2021/10/20 10:19:14;;;;;;;;;12.00;9.25;;;;;;;;5065437;28;8915;-74
2021/10/20 10:21:45;;;;;;;;;14.75;14.75;;;;;;;;5065215;28;8981;-74
2021/10/20 10:24:14;;;;;;;;;12.75;12.75;;;;;;;;5065290;28;9050;-74
2021/10/20 10:27:01;;;;;;;;;12.00;12.00;;;;;;;;5065974;28;9678;-73
2021/10/20 10:29:29;;;;;;;;;14.00;12.75;;;;;;;;5064457;28;8867;-74
2021/10/20 10:32:01;;;;;;;;;13.25;11.75;;;;;;;;5063721;28;8949;-74
2021/10/20 10:34:35;;;;;;;;;11.75;11.75;;;;;;;;5065171;28;8885;-74
2021/10/20 10:37:02;;;;;;;;;14.75;13.25;;;;;;;;5064827;28;8874;-71
2021/10/20 10:39:31;;;;;;;;;14.50;14.50;;;;;;;;5064477;28;9613;-71
2021/10/20 10:42:01;;;;;;;;;11.00;11.00;;;;;;;;5063582;28;9004;-74
2021/10/20 10:44:29;;;;;;;;;13.25;12.50;;;;;;;;5065562;28;8878;-74
2021/10/20 10:47:19;;;;;;;;;13.00;11.75;;;;;;;;5063917;28;8878;-74
2021/10/20 10:49:52;;;;;;;;;11.00;11.00;;;;;;;;5064858;28;8858;-74
2021/10/20 10:52:32;;;;;;;;;10.50;10.25;;;;;;;;5064749;28;9037;-73
2021/10/20 10:55:06;;;;;;;;;12.25;12.25;;;;;;;;5063915;28;8878;-75
2021/10/20 10:57:58;;;;;;;;;14.00;13.00;;;;;;;;5059456;28;8991;-74
2021/10/20 11:00:46;;;;;;;;;13.75;12.00;;;;;;;;5060971;28;8829;-75
2021/10/20 11:03:27;;;;;;;;;10.00;10.00;;;;;;;;5063851;28;8990;-74
2021/10/20 11:06:00;;;;;;;;;13.00;11.50;;;;;;;;5064725;28;8874;-75
2021/10/20 11:08:36;;;;;;;;;13.50;12.00;;;;;;;;5062864;28;8882;-75
2021/10/20 11:11:05;;;;;;;;;14.00;13.50;;;;;;;;5064847;28;8882;-75
2021/10/20 11:13:34;;;;;;;;;10.00;10.00;;;;;;;;5062711;28;8943;-75
2021/10/20 11:16:01;;;;;;;;;10.25;10.25;;;;;;;;5064131;28;9714;-74
2021/10/20 11:18:30;;;;;;;;;11.25;10.50;;;;;;;;5062465;28;8854;-73
2021/10/20 11:20:58;;;;;;;;;10.50;10.50;;;;;;;;5063649;28;8863;-73
2021/10/20 11:23:29;;;;;;;;;11.50;11.50;;;;;;;;5063742;28;9620;-74
2021/10/20 11:26:01;;;;;;;;;12.50;11.25;;;;;;;;5062917;28;8866;-74
2021/10/20 11:28:32;;;;;;;;;10.00;10.00;;;;;;;;5063142;28;8854;-73
2021/10/20 11:31:07;;;;;;;;;13.20;10.00;;;;;;;;5059997;28;8906;-73
2021/10/20 11:33:36;;;;;;;;;11.40;11.40;;;;;;;;5062603;28;8951;-74
2021/10/20 11:36:04;;;;;;;;;10.80;9.80;;;;;;;;5063111;28;9532;-76
2021/10/20 11:38:35;;;;;;;;;11.00;9.50;;;;;;;;5062056;28;8861;-71
2021/10/20 11:41:02;;;;;;;;;11.25;11.25;;;;;;;;5063325;28;8851;-73
2021/10/20 11:43:39;;;;;;;;;7.60;7.60;;;;;;;;5061911;28;8862;-73
2021/10/20 11:46:07;;;;;;;;;10.00;9.00;;;;;;;;5063219;28;8896;-73
2021/10/20 11:48:36;;;;;;;;;11.60;9.40;;;;;;;;5059401;28;8938;-73
2021/10/20 11:51:04;;;;;;;;;11.00;9.80;;;;;;;;5062743;28;9640;-74
2021/10/20 11:53:32;;;;;;;;;10.80;9.40;;;;;;;;5063335;28;8874;-75
2021/10/20 11:56:00;;;;;;;;;11.20;8.80;;;;;;;;5062194;28;8859;-72
2021/10/20 11:58:29;;;;;;;;;10.40;10.40;;;;;;;;5063826;28;8960;-73
2021/10/20 12:00:58;;;;;;;;;7.80;7.80;;;;;;;;5049598;28;8823;-73
2021/10/20 12:03:33;;;;;;;;;13.40;9.60;;;;;;;;5060449;28;8901;-73
2021/10/20 12:06:06;;;;;;;;;10.50;10.50;;;;;;;;5052857;28;8886;-73
2021/10/20 12:08:34;;;;;;;;;11.50;11.50;;;;;;;;5062005;28;8865;-73
2021/10/20 12:11:05;;;;;;;;;8.20;7.20;;;;;;;;5063443;28;8873;-74
2021/10/20 12:13:36;;;;;;;;;7.80;7.80;;;;;;;;5062018;28;8973;-74
2021/10/20 12:16:05;;;;;;;;;10.00;8.00;;;;;;;;5064068;28;8889;-73
2021/10/20 12:18:33;;;;;;;;;6.60;6.60;;;;;;;;5061672;28;8854;-73
2021/10/20 12:21:03;;;;;;;;;8.40;8.40;;;;;;;;5064244;28;8888;-73
2021/10/20 12:23:33;;;;;;;;;9.20;9.00;;;;;;;;5062827;28;8956;-72
2021/10/20 12:26:02;;;;;;;;;7.80;7.60;;;;;;;;5063792;28;8909;-73
2021/10/20 12:28:30;;;;;;;;;7.60;6.80;;;;;;;;5063919;28;8870;-73
2021/10/20 12:30:57;;;;;;;;;7.25;7.25;;;;;;;;5063024;28;8823;-74
2021/10/20 12:33:25;;;;;;;;;3.75;3.75;;;;;;;;5064014;28;9001;-73
2021/10/20 12:35:53;;;;;;;;;7.75;7.75;;;;;;;;5062542;28;8881;-72
2021/10/20 12:38:22;;;;;;;;;5.75;5.75;;;;;;;;5063721;28;8875;-73
2021/10/20 12:40:50;;;;;;;;;5.25;5.25;;;;;;;;5062951;28;8867;-73
2021/10/20 12:43:18;;;;;;;;;8.50;8.50;;;;;;;;5063678;28;8874;-72
2021/10/20 12:45:50;;;;;;;;;11.50;9.50;;;;;;;;5062806;28;8900;-73
2021/10/20 12:48:17;;;;;;;;;10.00;9.75;;;;;;;;5063585;28;8862;-74
2021/10/20 12:50:46;;;;;;;;;8.25;8.25;;;;;;;;5063384;28;8867;-73
2021/10/20 12:53:15;;;;;;;;;11.25;11.25;;;;;;;;5059716;28;8855;-74
2021/10/20 12:55:45;;;;;;;;;12.25;12.25;;;;;;;;5056901;28;8957;-73
2021/10/20 12:58:14;;;;;;;;;13.00;11.25;;;;;;;;5061765;28;8887;-74
2021/10/20 13:00:42;;;;;;;;;12.75;12.50;;;;;;;;5062176;28;8805;-74
2021/10/20 13:03:10;;;;;;;;;15.50;15.50;;;;;;;;5066093;28;8887;-71
2021/10/20 13:05:37;;;;;;;;;15.50;15.50;;;;;;;;5058066;28;8916;-73
2021/10/20 13:08:05;;;;;;;;;17.50;16.50;;;;;;;;5062075;28;8854;-73
2021/10/20 13:10:32;;;;;;;;;16.75;16.25;;;;;;;;5062330;28;8874;-73
2021/10/20 13:13:01;;;;;;;;;14.00;14.00;;;;;;;;5064494;28;8866;-72
2021/10/20 13:15:29;;;;;;;;;15.00;14.25;;;;;;;;5062860;28;9008;-72
2021/10/20 13:17:57;;;;;;;;;14.50;14.25;;;;;;;;5063806;28;8894;-73
2021/10/20 13:20:24;;;;;;;;;13.75;13.25;;;;;;;;5062478;28;8875;-73
2021/10/20 13:22:52;;;;;;;;;14.25;12.25;;;;;;;;5062988;28;9624;-72
2021/10/20 13:25:20;;;;;;;;;11.50;11.50;;;;;;;;5063100;28;8881;-73
2021/10/20 13:27:47;;;;;;;;;12.00;12.00;;;;;;;;5063228;28;8973;-73
2021/10/20 13:30:17;;;;;;;;;13.25;13.25;;;;;;;;5063313;28;8870;-73
2021/10/20 13:32:45;;;;;;;;;10.00;10.00;;;;;;;;5061705;28;10172;-72
2021/10/20 13:35:13;;;;;;;;;9.60;9.60;;;;;;;;5063757;28;8969;-73
2021/10/20 13:37:40;;;;;;;;;11.40;10.60;;;;;;;;5060926;28;8871;-74
2021/10/20 13:40:09;;;;;;;;;8.20;8.20;;;;;;;;5063818;28;8882;-73
2021/10/20 13:42:37;;;;;;;;;11.00;10.40;;;;;;;;5062155;28;8971;-72
2021/10/20 13:45:07;;;;;;;;;11.80;10.60;;;;;;;;5062302;28;8874;-73
2021/10/20 13:47:36;;;;;;;;;8.40;8.40;;;;;;;;5064056;28;8854;-73
2021/10/20 13:50:05;;;;;;;;;9.80;9.80;;;;;;;;5061798;28;8900;-73
2021/10/20 13:52:32;;;;;;;;;10.00;7.80;;;;;;;;5063428;28;8878;-72
2021/10/20 13:55:00;;;;;;;;;9.00;7.20;;;;;;;;5064700;28;8878;-73
2021/10/20 13:57:27;;;;;;;;;7.80;6.80;;;;;;;;5061684;28;8883;-75
2021/10/20 13:59:55;;;;;;;;;6.80;6.60;;;;;;;;5065210;28;8898;-74
2021/10/20 14:02:22;;;;;;;;;4.20;4.20;;;;;;;;5061868;28;8874;-73
2021/10/20 14:04:53;;;;;;;;;6.40;6.40;;;;;;;;5065801;28;8965;-74
2021/10/20 14:07:22;;;;;;;;;6.20;6.00;;;;;;;;5064310;28;8889;-72
2021/10/20 14:09:51;;;;;;;;;8.80;8.20;;;;;;;;5065055;28;8852;-72
2021/10/20 14:12:19;;;;;;;;;7.60;7.60;;;;;;;;5064556;28;8906;-72
2021/10/20 14:14:47;;;;;;;;;6.20;6.20;;;;;;;;5064769;28;8870;-72
2021/10/20 14:17:16;;;;;;;;;9.60;8.00;;;;;;;;5061101;28;8901;-73
2021/10/20 14:19:43;;;;;;;;;5.40;5.40;;;;;;;;5063568;28;8881;-74
2021/10/20 14:22:16;;;;;;;;;6.60;6.60;;;;;;;;5064619;28;9507;-74
2021/10/20 14:24:44;;;;;;;;;4.60;4.60;;;;;;;;5064444;28;8924;-73
2021/10/20 14:27:13;;;;;;;;;6.20;6.20;;;;;;;;5065092;28;8855;-73
2021/10/20 14:29:40;;;;;;;;;5.60;5.60;;;;;;;;5065340;28;8869;-73
2021/10/20 14:32:10;;;;;;;;;9.00;7.60;;;;;;;;5063108;28;8823;-73
2021/10/20 14:34:38;;;;;;;;;6.80;6.80;;;;;;;;5065577;28;8870;-73
2021/10/20 14:37:05;;;;;;;;;7.40;6.40;;;;;;;;5065049;28;9001;-74
2021/10/20 14:39:35;;;;;;;;;8.60;8.20;;;;;;;;5062754;28;8875;-74
2021/10/20 14:42:03;;;;;;;;;5.80;5.80;;;;;;;;5065827;28;8989;-75
2021/10/20 14:44:34;;;;;;;;;7.60;7.60;;;;;;;;5064531;28;9616;-75
2021/10/20 14:49:46;;;;;;;;;8.40;7.60;;;;;;;;5065161;28;8960;-75